Time;durP1;ratioP1;P1;durP2;ratioP2;P2;SDS_P1;SDS_P2;PMS_P1;PMS_P2;Temp;Humidity;BMP_temperature;BMP_pressure;BME280_temperature;BME280_humidity;BME280_pressure;Samples;Min_cycle;Max_cycle;Signal;HPM_P1;HPM_P2
2022/10/15 00:01:41;;;;;;;;;;;;;;;-144.99;100.00;52395.09;5063313;28;19925;-68
2022/10/15 00:04:08;;;;;;;;;;;;;;;-144.99;100.00;52380.84;5069049;28;19931;-70
2022/10/15 00:06:34;;;;;;;;;;;;;;;-144.99;100.00;52397.13;5070924;28;19935;-69
2022/10/15 00:09:01;;;;;;;;;;;;;;;-144.99;100.00;52386.94;5069207;28;19924;-69
2022/10/15 00:11:28;;;;;;;;;;;;;;;-144.99;100.00;52370.63;5070923;28;20393;-69
2022/10/15 00:13:55;;;;;;;;;;;;;;;-144.99;100.00;52376.75;5066936;28;19932;-69
2022/10/15 00:16:23;;;;;;;;;;;;;;;-144.99;100.00;52415.47;5071191;28;20399;-68
2022/10/15 00:18:51;;;;;;;;;;;;;;;-144.99;100.00;52354.34;5069833;28;20376;-68
2022/10/15 00:21:18;;;;;;;;;;;;;;;-144.99;100.00;52336.00;5072176;28;19932;-69
2022/10/15 00:23:45;;;;;;;;;;;;;;;-144.99;100.00;52427.72;5068549;28;19999;-68
2022/10/15 00:26:13;;;;;;;;;;;;;;;-144.99;100.00;52419.56;5059306;28;20019;-68
2022/10/15 00:28:39;;;;;;;;;;;;;;;-144.99;100.00;52397.13;5065073;28;20308;-69
2022/10/15 00:31:07;;;;;;;;;;;;;;;-144.99;100.00;52413.44;5071556;28;19925;-69
2022/10/15 00:33:35;;;;;;;;;;;;;;;-144.99;100.00;52399.19;5069358;28;20274;-69
2022/10/15 00:36:02;;;;;;;;;;;;;;;-144.99;100.00;52409.38;5064908;28;19962;-70
2022/10/15 00:38:29;;;;;;;;;;;;;;;-144.99;100.00;52403.25;5065583;28;19935;-69
2022/10/15 00:40:56;;;;;;;;;;;;;;;-144.99;100.00;52382.88;5073046;28;19928;-70
2022/10/15 00:43:35;;;;;;;;;;;;;;;-144.99;100.00;52419.56;5072660;28;19929;-72
2022/10/15 00:46:02;;;;;;;;;;;;;;;-144.99;100.00;52431.78;5072473;28;20011;-65
2022/10/15 00:48:30;;;;;;;;;;;;;;;-144.99;100.00;52401.22;5070606;28;20015;-65
2022/10/15 00:50:59;;;;;;;;;;;;;;;-144.99;100.00;52393.06;5073992;28;19930;-65
2022/10/15 00:53:25;;;;;;;;;;;;;;;-144.99;100.00;52395.09;5066250;28;20854;-64
2022/10/15 00:55:51;;;;;;;;;;;;;;;-144.99;100.00;52395.09;5069589;28;19924;-65
2022/10/15 00:58:21;;;;;;;;;;;;;;;-144.99;100.00;52382.88;5059976;28;20265;-66
2022/10/15 01:00:47;;;;;;;;;;;;;;;-144.99;100.00;52403.25;5073216;28;19979;-67
2022/10/15 01:03:14;;;;;;;;;;;;;;;-144.99;100.00;52388.97;5070569;28;19931;-68
2022/10/15 01:05:41;;;;;;;;;;;;;;;-144.99;100.00;52370.63;5068895;28;20265;-68
2022/10/15 01:08:09;;;;;;;;;;;;;;;-144.99;100.00;52364.53;5067932;28;20488;-63
2022/10/15 01:10:39;;;;;;;;;;;;;;;-144.99;100.00;52382.88;5073443;28;19931;-66
2022/10/15 01:13:12;;;;;;;;;;;;;;;-144.99;100.00;52427.72;5066820;28;20321;-65
2022/10/15 01:15:44;;;;;;;;;;;;;;;-144.99;100.00;52407.31;5071846;28;20428;-66
2022/10/15 01:18:14;;;;;;;;;;;;;;;-144.99;100.00;52386.94;5064754;28;20091;-67
2022/10/15 01:20:52;;;;;;;;;;;;;;;-144.99;100.00;52393.06;5058069;28;20006;-66
2022/10/15 01:23:36;;;;;;;;;;;;;;;-144.99;100.00;52409.38;5071488;28;20031;-67
2022/10/15 01:26:14;;;;;;;;;;;;;;;-144.99;100.00;52403.25;5059706;28;19928;-67
2022/10/15 01:28:47;;;;;;;;;;;;;;;-144.99;100.00;52378.78;5066394;28;20151;-66
2022/10/15 01:31:19;;;;;;;;;;;;;;;-144.99;100.00;52362.50;5074264;28;19928;-67
2022/10/15 01:33:49;;;;;;;;;;;;;;;-144.99;100.00;52382.88;5061009;28;20031;-66
2022/10/15 01:36:18;;;;;;;;;;;;;;;-144.99;100.00;52403.25;5073161;28;19935;-67
2022/10/15 01:38:49;;;;;;;;;;;;;;;-144.99;100.00;52370.63;5057019;28;19924;-67
2022/10/15 01:41:18;;;;;;;;;;;;;;;-144.99;100.00;52366.56;5061474;28;20031;-65
2022/10/15 01:43:46;;;;;;;;;;;;;;;-144.99;100.00;52395.09;5069561;28;20030;-65
2022/10/15 01:46:16;;;;;;;;;;;;;;;-144.99;100.00;52378.78;5069672;28;19939;-65
2022/10/15 01:48:44;;;;;;;;;;;;;;;-144.99;100.00;52393.06;5058607;28;19935;-66
2022/10/15 01:51:11;;;;;;;;;;;;;;;-144.99;100.00;52378.78;5065312;28;19924;-65
2022/10/15 01:53:39;;;;;;;;;;;;;;;-144.99;100.00;52378.78;5066135;28;20027;-65
2022/10/15 01:56:08;;;;;;;;;;;;;;;-144.99;100.00;52454.22;5059407;28;20299;-65
2022/10/15 01:58:36;;;;;;;;;;;;;;;-144.99;100.00;52435.88;5068260;28;19925;-65
2022/10/15 02:01:03;;;;;;;;;;;;;;;-144.99;100.00;52409.38;5070821;28;20369;-65
2022/10/15 02:03:29;;;;;;;;;;;;;;;-144.99;100.00;52382.88;5069457;28;19925;-65
2022/10/15 02:06:01;;;;;;;;;;;;;;;-144.99;100.00;52435.88;5068191;28;19934;-66
2022/10/15 02:08:30;;;;;;;;;;;;;;;-144.99;100.00;52391.03;5067741;28;20301;-66
2022/10/15 02:10:59;;;;;;;;;;;;;;;-144.99;100.00;52407.31;5069573;28;19928;-65
2022/10/15 02:13:32;;;;;;;;;;;;;;;-144.99;100.00;52399.19;5065771;28;20403;-66
2022/10/15 02:16:02;;;;;;;;;;;;;;;-144.99;100.00;52423.63;5067942;28;19946;-66
2022/10/15 02:18:30;;;;;;;;;;;;;;;-144.99;100.00;52411.41;5066679;28;19945;-66
2022/10/15 02:20:59;;;;;;;;;;;;;;;-144.99;100.00;52395.09;5064774;28;19928;-66
2022/10/15 02:23:27;;;;;;;;;;;;;;;-144.99;100.00;52395.09;5068573;28;20276;-73
2022/10/15 02:25:54;;;;;;;;;;;;;;;-144.99;100.00;52427.72;5067248;28;20346;-71
2022/10/15 02:28:23;;;;;;;;;;;;;;;-144.99;100.00;52415.47;5064231;28;19924;-66
2022/10/15 02:30:51;;;;;;;;;;;;;;;-144.99;100.00;52380.84;5067733;28;19925;-67
2022/10/15 02:33:19;;;;;;;;;;;;;;;-144.99;100.00;52435.88;5067392;28;20277;-67
2022/10/15 02:35:47;;;;;;;;;;;;;;;-144.99;100.00;52423.63;5067781;28;19924;-68
2022/10/15 02:38:17;;;;;;;;;;;;;;;-144.99;100.00;52407.31;5064972;28;20417;-68
2022/10/15 02:40:45;;;;;;;;;;;;;;;-144.99;100.00;52403.25;5068553;28;19928;-67
2022/10/15 02:43:13;;;;;;;;;;;;;;;-144.99;100.00;52411.41;5069796;28;20022;-67
2022/10/15 02:45:39;;;;;;;;;;;;;;;-144.99;100.00;52395.09;5070128;28;19925;-65
2022/10/15 02:48:07;;;;;;;;;;;;;;;-144.99;100.00;52448.09;5070014;28;20644;-66
2022/10/15 02:50:33;;;;;;;;;;;;;;;-144.99;100.00;52395.09;5068441;28;19955;-66
2022/10/15 02:52:59;;;;;;;;;;;;;;;-144.99;100.00;52439.94;5066341;28;19924;-67
2022/10/15 02:55:27;;;;;;;;;;;;;;;-144.99;100.00;52378.78;5073002;28;20473;-66
2022/10/15 02:57:54;;;;;;;;;;;;;;;-144.99;100.00;52407.31;5071651;28;20031;-67
2022/10/15 03:00:20;;;;;;;;;;;;;;;-144.99;100.00;52391.03;5071989;28;19928;-68
2022/10/15 03:02:46;;;;;;;;;;;;;;;-144.99;100.00;52456.25;5072006;28;19924;-68
2022/10/15 03:05:13;;;;;;;;;;;;;;;-144.99;100.00;52433.81;5070405;28;20293;-69
2022/10/15 03:07:39;;;;;;;;;;;;;;;-144.99;100.00;52435.88;5059755;28;20004;-69
2022/10/15 03:10:06;;;;;;;;;;;;;;;-144.99;100.00;52431.78;5069308;28;19958;-69
2022/10/15 03:12:34;;;;;;;;;;;;;;;-144.99;100.00;52403.25;5070077;28;20332;-70
2022/10/15 03:15:00;;;;;;;;;;;;;;;-144.99;100.00;52435.88;5070547;28;19925;-69
2022/10/15 03:17:27;;;;;;;;;;;;;;;-144.99;100.00;52419.56;5070600;28;19925;-69
2022/10/15 03:19:53;;;;;;;;;;;;;;;-144.99;100.00;52415.47;5073231;28;19924;-68
2022/10/15 03:22:19;;;;;;;;;;;;;;;-144.99;100.00;52460.31;5071972;28;19940;-68
2022/10/15 03:24:46;;;;;;;;;;;;;;;-144.99;100.00;52435.88;5071057;28;19928;-67
2022/10/15 03:27:12;;;;;;;;;;;;;;;-144.99;100.00;52419.56;5073857;28;20075;-67
2022/10/15 03:29:40;;;;;;;;;;;;;;;-144.99;100.00;52419.56;5075903;28;20260;-67
2022/10/15 03:32:06;;;;;;;;;;;;;;;-144.99;100.00;52391.03;5069386;28;19929;-68
2022/10/15 03:34:33;;;;;;;;;;;;;;;-144.99;100.00;52419.56;5070500;28;19929;-67
2022/10/15 03:36:59;;;;;;;;;;;;;;;-144.99;100.00;52415.47;5073332;28;19934;-68
2022/10/15 03:39:25;;;;;;;;;;;;;;;-144.99;100.00;52431.78;5067536;28;19925;-65
2022/10/15 03:41:52;;;;;;;;;;;;;;;-144.99;100.00;52386.94;5069871;28;19930;-65
2022/10/15 03:44:18;;;;;;;;;;;;;;;-144.99;100.00;52411.41;5062811;28;19928;-65
2022/10/15 03:46:46;;;;;;;;;;;;;;;-144.99;100.00;52427.72;5073659;28;19925;-65
2022/10/15 03:49:13;;;;;;;;;;;;;;;-144.99;100.00;52415.47;5075665;28;19950;-63
2022/10/15 03:51:39;;;;;;;;;;;;;;;-144.99;100.00;52415.47;5070947;28;19936;-63
2022/10/15 03:54:05;;;;;;;;;;;;;;;-144.99;100.00;52474.59;5070273;28;19928;-61
2022/10/15 03:56:32;;;;;;;;;;;;;;;-144.99;100.00;52431.78;5063897;28;19924;-62
2022/10/15 03:58:58;;;;;;;;;;;;;;;-144.99;100.00;52409.38;5076329;28;19928;-62
2022/10/15 04:01:24;;;;;;;;;;;;;;;-144.99;100.00;52419.56;5073475;28;19928;-63
2022/10/15 04:03:53;;;;;;;;;;;;;;;-144.99;100.00;52386.94;5068404;28;19930;-63
2022/10/15 04:06:19;;;;;;;;;;;;;;;-144.99;100.00;52350.25;5073886;28;19947;-63
2022/10/15 04:08:45;;;;;;;;;;;;;;;-144.99;100.00;52446.06;5073960;28;19935;-63
2022/10/15 04:11:12;;;;;;;;;;;;;;;-144.99;100.00;52439.94;5071881;28;19928;-63
2022/10/15 04:13:38;;;;;;;;;;;;;;;-144.99;100.00;52399.19;5069077;28;19938;-66
2022/10/15 04:16:05;;;;;;;;;;;;;;;-144.99;100.00;52423.63;5067447;28;20265;-66
2022/10/15 04:18:32;;;;;;;;;;;;;;;-144.99;100.00;52431.78;5069693;28;20365;-66
2022/10/15 04:21:00;;;;;;;;;;;;;;;-144.99;100.00;52454.22;5072620;28;19924;-70
2022/10/15 04:23:26;;;;;;;;;;;;;;;-144.99;100.00;52435.88;5067342;28;20317;-70
2022/10/15 04:25:53;;;;;;;;;;;;;;;-144.99;100.00;52427.72;5063340;28;19933;-69
2022/10/15 04:28:20;;;;;;;;;;;;;;;-144.99;100.00;52419.56;5073341;28;20300;-71
2022/10/15 04:30:46;;;;;;;;;;;;;;;-144.99;100.00;52415.47;5072038;28;20289;-64
2022/10/15 04:33:12;;;;;;;;;;;;;;;-144.99;100.00;52431.78;5073243;28;19935;-64
2022/10/15 04:35:39;;;;;;;;;;;;;;;-144.99;100.00;52411.41;5067169;28;19924;-63
2022/10/15 04:38:06;;;;;;;;;;;;;;;-144.99;100.00;52391.03;5065053;28;19928;-65
2022/10/15 04:40:33;;;;;;;;;;;;;;;-144.99;100.00;52435.88;5069290;28;19928;-63
2022/10/15 04:42:59;;;;;;;;;;;;;;;-144.99;100.00;52419.56;5074308;28;20015;-65
2022/10/15 04:45:26;;;;;;;;;;;;;;;-144.99;100.00;52391.03;5065526;28;19951;-64
2022/10/15 04:47:52;;;;;;;;;;;;;;;-144.99;100.00;52407.31;5071431;28;19925;-64
2022/10/15 04:50:18;;;;;;;;;;;;;;;-144.99;100.00;52395.09;5071377;28;19925;-65
2022/10/15 04:52:45;;;;;;;;;;;;;;;-144.99;100.00;52419.56;5068770;28;19982;-64
2022/10/15 04:55:12;;;;;;;;;;;;;;;-144.99;100.00;52391.03;5054249;28;19929;-64
2022/10/15 04:57:39;;;;;;;;;;;;;;;-144.99;100.00;52415.47;5065972;28;19931;-65
2022/10/15 05:00:06;;;;;;;;;;;;;;;-144.99;100.00;52417.53;5067518;28;20284;-62
2022/10/15 05:02:32;;;;;;;;;;;;;;;-144.99;100.00;52427.72;5070320;28;20079;-64
2022/10/15 05:04:59;;;;;;;;;;;;;;;-144.99;100.00;52413.44;5065719;28;19931;-63
2022/10/15 05:07:25;;;;;;;;;;;;;;;-144.99;100.00;52407.31;5068359;28;19936;-72
2022/10/15 05:09:52;;;;;;;;;;;;;;;-144.99;100.00;52407.31;5063673;28;19942;-70
2022/10/15 05:12:20;;;;;;;;;;;;;;;-144.99;100.00;52456.25;5068381;28;19928;-71
2022/10/15 05:14:46;;;;;;;;;;;;;;;-144.99;100.00;52403.25;5064724;28;20412;-69
2022/10/15 05:17:12;;;;;;;;;;;;;;;-144.99;100.00;52441.97;5059731;28;19931;-68
2022/10/15 05:19:39;;;;;;;;;;;;;;;-144.99;100.00;52439.94;5089219;22;19924;-76
2022/10/15 05:22:05;;;;;;;;;;;;;;;-144.99;100.00;52456.25;5092752;28;19928;-76
2022/10/15 05:24:31;;;;;;;;;;;;;;;-144.99;100.00;52476.63;5094229;28;19931;-75
2022/10/15 05:26:58;;;;;;;;;;;;;;;-144.99;100.00;52431.78;5103358;28;19930;-77
2022/10/15 05:29:25;;;;;;;;;;;;;;;-144.99;100.00;52452.16;5102094;28;19923;-77
2022/10/15 05:31:52;;;;;;;;;;;;;;;-144.99;100.00;52419.56;5080722;28;19947;-77
2022/10/15 05:34:18;;;;;;;;;;;;;;;-144.99;100.00;52423.63;5085715;28;20533;-75
2022/10/15 05:36:44;;;;;;;;;;;;;;;-144.99;100.00;52427.72;5078152;28;20426;-79
2022/10/15 05:39:12;;;;;;;;;;;;;;;-144.99;100.00;52421.59;5092601;28;19930;-80
2022/10/15 05:41:38;;;;;;;;;;;;;;;-144.99;100.00;52458.28;5080177;28;19932;-80
2022/10/15 05:44:05;;;;;;;;;;;;;;;-144.99;100.00;52452.16;5077697;28;19924;-80
2022/10/15 05:46:32;;;;;;;;;;;;;;;-144.99;100.00;52431.78;5084346;28;19934;-79
2022/10/15 05:48:59;;;;;;;;;;;;;;;-144.99;100.00;52419.56;5083345;28;19931;-80
2022/10/15 05:51:26;;;;;;;;;;;;;;;-144.99;100.00;52374.72;5081403;28;19928;-78
2022/10/15 05:53:52;;;;;;;;;;;;;;;-144.99;100.00;52437.91;5079904;28;19924;-77
2022/10/15 05:56:19;;;;;;;;;;;;;;;-144.99;100.00;52370.63;5078596;28;20379;-78
2022/10/15 05:58:45;;;;;;;;;;;;;;;-144.99;100.00;52429.75;5077670;28;20382;-79
2022/10/15 06:01:12;;;;;;;;;;;;;;;-144.99;100.00;52403.25;5080371;28;19924;-79
2022/10/15 06:03:40;;;;;;;;;;;;;;;-144.99;100.00;52448.09;5079780;28;19928;-77
2022/10/15 06:06:13;;;;;;;;;;;;;;;-144.99;100.00;52448.09;5075045;28;19947;-79
2022/10/15 06:08:39;;;;;;;;;;;;;;;-144.99;100.00;52423.63;5076551;28;19924;-80
2022/10/15 06:11:06;;;;;;;;;;;;;;;-144.99;100.00;52452.16;5080206;28;19935;-79
2022/10/15 06:13:32;;;;;;;;;;;;;;;-144.99;100.00;52419.56;5076517;28;19944;-78
2022/10/15 06:15:58;;;;;;;;;;;;;;;-144.99;100.00;52423.63;5080490;28;19924;-80
2022/10/15 06:18:25;;;;;;;;;;;;;;;-144.99;100.00;52435.88;5077537;28;19924;-79
2022/10/15 06:20:52;;;;;;;;;;;;;;;-144.99;100.00;52431.78;5075436;28;20006;-77
2022/10/15 06:23:20;;;;;;;;;;;;;;;-144.99;100.00;52411.41;5080002;28;19932;-78
2022/10/15 06:25:46;;;;;;;;;;;;;;;-144.99;100.00;52450.13;5078827;28;19972;-78
2022/10/15 06:28:13;;;;;;;;;;;;;;;-144.99;100.00;52435.88;5077806;28;19924;-77
2022/10/15 06:30:39;;;;;;;;;;;;;;;-144.99;100.00;52415.47;5080916;28;19936;-77
2022/10/15 06:33:05;;;;;;;;;;;;;;;-144.99;100.00;52419.56;5076230;28;20042;-77
2022/10/15 06:35:32;;;;;;;;;;;;;;;-144.99;100.00;52403.25;5081177;28;19930;-76
2022/10/15 06:38:01;;;;;;;;;;;;;;;-144.99;100.00;52431.78;5077996;28;20255;-78
2022/10/15 06:40:27;;;;;;;;;;;;;;;-144.99;100.00;52423.63;5076518;28;20262;-79
2022/10/15 06:42:54;;;;;;;;;;;;;;;-144.99;100.00;52401.22;5074035;28;19924;-80
2022/10/15 06:45:20;;;;;;;;;;;;;;;-144.99;100.00;52419.56;5087363;28;20410;-76
2022/10/15 06:47:47;;;;;;;;;;;;;;;-144.99;100.00;52458.28;5079493;28;19925;-76
2022/10/15 06:50:13;;;;;;;;;;;;;;;-144.99;100.00;52439.94;5085747;28;19931;-77
2022/10/15 06:52:39;;;;;;;;;;;;;;;-144.99;100.00;52431.78;5080014;28;20292;-77
2022/10/15 06:55:08;;;;;;;;;;;;;;;-144.99;100.00;52407.31;5080736;28;19932;-77
2022/10/15 06:57:34;;;;;;;;;;;;;;;-144.99;100.00;52419.56;5075549;28;19943;-76
2022/10/15 07:00:00;;;;;;;;;;;;;;;-144.99;100.00;52391.03;5078539;28;19932;-80
2022/10/15 07:02:27;;;;;;;;;;;;;;;-144.99;100.00;52435.88;5081774;28;19924;-80
2022/10/15 07:04:53;;;;;;;;;;;;;;;-144.99;100.00;52456.25;5079913;28;20043;-79
2022/10/15 07:07:19;;;;;;;;;;;;;;;-144.99;100.00;52425.66;5077949;28;19928;-78
2022/10/15 07:09:46;;;;;;;;;;;;;;;-144.99;100.00;52395.09;5080667;28;19956;-81
2022/10/15 07:12:15;;;;;;;;;;;;;;;-144.99;100.00;52419.56;5079907;28;19925;-79
2022/10/15 07:14:41;;;;;;;;;;;;;;;-144.99;100.00;52415.47;5087531;28;19924;-79
2022/10/15 07:17:07;;;;;;;;;;;;;;;-144.99;100.00;52435.88;5088822;28;19979;-78
2022/10/15 07:19:34;;;;;;;;;;;;;;;-144.99;100.00;52417.53;5081223;28;20414;-79
2022/10/15 07:22:00;;;;;;;;;;;;;;;-144.99;100.00;52423.63;5083625;28;20023;-79
2022/10/15 07:24:27;;;;;;;;;;;;;;;-144.99;100.00;52423.63;5073538;28;19928;-78
2022/10/15 07:26:53;;;;;;;;;;;;;;;-144.99;100.00;52431.78;5084192;28;19932;-79
2022/10/15 07:29:21;;;;;;;;;;;;;;;-144.99;100.00;52399.19;5084034;28;20410;-80
2022/10/15 07:31:47;;;;;;;;;;;;;;;-144.99;100.00;52397.13;5117261;28;19924;-74
2022/10/15 07:34:13;;;;;;;;;;;;;;;-144.99;100.00;52407.31;5092576;28;19981;-77
2022/10/15 07:36:40;;;;;;;;;;;;;;;-144.99;100.00;52441.97;5081046;28;19928;-78
2022/10/15 07:39:06;;;;;;;;;;;;;;;-144.99;100.00;52450.13;5087552;28;19946;-75
2022/10/15 07:41:32;;;;;;;;;;;;;;;-144.99;100.00;52423.63;5090891;28;20014;-76
2022/10/15 07:43:59;;;;;;;;;;;;;;;-144.99;100.00;52444.03;5084766;28;19924;-76
2022/10/15 07:46:27;;;;;;;;;;;;;;;-144.99;100.00;52427.72;5088691;28;20210;-77
2022/10/15 07:48:53;;;;;;;;;;;;;;;-144.99;100.00;52425.66;5098787;28;20371;-78
2022/10/15 07:51:19;;;;;;;;;;;;;;;-144.99;100.00;52439.94;5084513;28;19931;-80
2022/10/15 07:53:46;;;;;;;;;;;;;;;-144.99;100.00;52399.19;5096544;28;19928;-78
2022/10/15 07:56:14;;;;;;;;;;;;;;;-144.99;100.00;52380.84;5092047;28;19924;-79
2022/10/15 07:58:41;;;;;;;;;;;;;;;-144.99;100.00;52423.63;5082851;28;19924;-78
2022/10/15 08:01:09;;;;;;;;;;;;;;;-144.99;100.00;52423.63;5079381;28;20283;-78
2022/10/15 08:03:36;;;;;;;;;;;;;;;-144.99;100.00;52433.81;5088152;28;19924;-77
2022/10/15 08:06:04;;;;;;;;;;;;;;;-144.99;100.00;52366.56;5098855;28;19925;-77
2022/10/15 08:08:30;;;;;;;;;;;;;;;-144.99;100.00;52425.66;5081903;28;19924;-78
2022/10/15 08:10:57;;;;;;;;;;;;;;;-144.99;100.00;52415.47;5075903;28;20236;-80
2022/10/15 08:13:23;;;;;;;;;;;;;;;-144.99;100.00;52411.41;5097688;28;19927;-78
2022/10/15 08:15:50;;;;;;;;;;;;;;;-144.99;100.00;52419.56;5089970;28;19924;-78
2022/10/15 08:18:16;;;;;;;;;;;;;;;-144.99;100.00;52403.25;5090414;28;19928;-79
2022/10/15 08:20:44;;;;;;;;;;;;;;;-144.99;100.00;52415.47;5086960;28;19924;-79
2022/10/15 08:23:14;;;;;;;;;;;;;;;-144.99;100.00;52386.94;5087776;28;19928;-80
2022/10/15 08:25:40;;;;;;;;;;;;;;;-144.99;100.00;52399.19;5094430;28;20375;-79
2022/10/15 08:28:08;;;;;;;;;;;;;;;-144.99;100.00;52399.19;5088254;28;19924;-77
2022/10/15 08:30:35;;;;;;;;;;;;;;;-144.99;100.00;52386.94;5100806;28;19934;-79
2022/10/15 08:33:01;;;;;;;;;;;;;;;-144.99;100.00;52395.09;5084270;28;19928;-78
2022/10/15 08:35:27;;;;;;;;;;;;;;;-144.99;100.00;52378.78;5098640;28;20307;-79
2022/10/15 08:37:55;;;;;;;;;;;;;;;-144.99;100.00;52338.03;5080401;28;19931;-78
2022/10/15 08:40:21;;;;;;;;;;;;;;;-144.99;96.78;52362.50;5083034;28;19925;-79
2022/10/15 08:42:49;;;;;;;;;;;;;;;-144.99;96.07;52378.78;5087089;28;19930;-79
2022/10/15 08:45:17;;;;;;;;;;;;;;;-144.99;96.80;52346.19;5091478;28;19928;-78
2022/10/15 08:47:46;;;;;;;;;;;;;;;-144.99;97.38;52358.41;5098410;28;19928;-80
2022/10/15 08:50:18;;;;;;;;;;;;;;;-144.99;95.11;52350.25;5070974;28;19925;-79
2022/10/15 08:52:46;;;;;;;;;;;;;;;-144.99;95.38;52374.72;5093554;28;20004;-79
2022/10/15 08:55:15;;;;;;;;;;;;;;;-144.99;97.15;52344.16;5089594;28;19924;-80
2022/10/15 08:57:45;;;;;;;;;;;;;;;-144.99;96.83;52386.94;5099098;28;19931;-79
2022/10/15 09:00:13;;;;;;;;;;;;;;;-144.99;96.31;52342.09;5080533;28;20292;-79
2022/10/15 09:02:46;;;;;;;;;;;;;;;-144.99;94.49;52354.34;5070871;28;19924;-79
2022/10/15 09:05:21;;;;;;;;;;;;;;;-144.99;92.35;52333.94;5082822;28;19935;-80
2022/10/15 09:07:53;;;;;;;;;;;;;;;-144.99;90.39;52346.19;5085717;28;19934;-78
2022/10/15 09:10:27;;;;;;;;;;;;;;;-144.99;85.14;52317.66;5076032;28;19924;-78
2022/10/15 09:12:58;;;;;;;;;;;;;;;-144.99;81.56;52303.38;5076703;28;19925;-79
2022/10/15 09:15:27;;;;;;;;;;;;;;;-144.99;79.12;52317.66;5087593;28;19923;-79
2022/10/15 09:17:54;;;;;;;;;;;;;;;-144.99;76.70;52283.00;5104550;28;19924;-78
2022/10/15 09:20:22;;;;;;;;;;;;;;;-144.99;75.39;52276.88;5091840;28;19939;-79
2022/10/15 09:22:50;;;;;;;;;;;;;;;-144.99;73.65;52293.19;5079489;28;19994;-79
2022/10/15 09:25:18;;;;;;;;;;;;;;;-144.99;75.22;52350.25;5085003;28;19924;-82
2022/10/15 09:27:47;;;;;;;;;;;;;;;-144.99;76.76;52285.03;5095677;28;19924;-80
2022/10/15 09:30:20;;;;;;;;;;;;;;;-144.99;75.81;52248.34;5076080;28;19928;-80
2022/10/15 09:32:49;;;;;;;;;;;;;;;-144.99;71.51;52303.38;5080491;28;19931;-80
2022/10/15 09:35:19;;;;;;;;;;;;;;;-144.99;68.39;52313.56;5091810;28;20291;-81
2022/10/15 09:37:49;;;;;;;;;;;;;;;-144.99;68.11;52289.13;5096438;28;20045;-79
2022/10/15 09:40:30;;;;;;;;;;;;;;;-144.99;69.37;52258.53;5077171;28;19924;-79
2022/10/15 09:42:59;;;;;;;;;;;;;;;-144.99;66.40;52266.69;5077654;28;19939;-79
2022/10/15 09:45:25;;;;;;;;;;;;;;;-144.99;64.92;52248.34;5090225;28;19955;-80
2022/10/15 09:47:52;;;;;;;;;;;;;;;-144.99;62.55;52234.09;5096991;28;20279;-78
2022/10/15 09:50:19;;;;;;;;;;;;;;;-144.99;60.59;52264.66;5088613;28;19928;-79
2022/10/15 09:52:54;;;;;;;;;;;;;;;-144.99;58.24;52207.59;5084444;28;20052;-79
2022/10/15 09:55:27;;;;;;;;;;;;;;;-144.99;54.41;52242.22;5094204;28;19930;-80
2022/10/15 09:57:56;;;;;;;;;;;;;;;-144.99;53.95;52215.75;5078163;28;19923;-79
2022/10/15 10:00:24;;;;;;;;;;;;;;;-144.99;55.21;52227.97;5079156;28;20054;-80
2022/10/15 10:03:03;;;;;;;;;;;;;;;-144.99;54.16;52256.50;5076190;28;20276;-81
2022/10/15 10:05:31;;;;;;;;;;;;;;;-144.99;54.77;52223.88;5095168;28;20010;-80
2022/10/15 10:08:07;;;;;;;;;;;;;;;-144.99;53.24;52219.81;5070744;28;19925;-80
2022/10/15 10:10:36;;;;;;;;;;;;;;;-144.99;51.85;52207.59;5075521;28;19925;-80
2022/10/15 10:13:02;;;;;;;;;;;;;;;-144.99;50.77;52187.19;5078523;28;19931;-81
2022/10/15 10:15:33;;;;;;;;;;;;;;;-144.99;49.55;52152.56;5084904;28;19935;-81
2022/10/15 10:18:00;;;;;;;;;;;;;;;-144.99;49.57;52170.91;5102108;28;19928;-82
2022/10/15 10:20:28;;;;;;;;;;;;;;;-144.99;48.73;52132.19;5112321;28;19924;-81
2022/10/15 10:22:55;;;;;;;;;;;;;;;-144.99;47.90;52158.66;5089094;28;20406;-82
2022/10/15 10:25:33;;;;;;;;;;;;;;;-144.99;46.64;52130.13;5086645;28;20015;-80
2022/10/15 10:28:05;;;;;;;;;;;;;;;-144.99;45.57;52111.78;5094793;28;19935;-79
2022/10/15 10:30:34;;;;;;;;;;;;;;;-144.99;45.48;52227.97;5076323;28;20298;-80
2022/10/15 10:33:01;;;;;;;;;;;;;;;-144.99;44.77;52097.53;5077439;28;19928;-82
2022/10/15 10:35:33;;;;;;;;;;;;;;;-144.99;43.67;52040.47;5090991;28;19936;-80
2022/10/15 10:37:59;;;;;;;;;;;;;;;-144.99;42.81;52083.25;5089680;28;19935;-79
2022/10/15 10:40:27;;;;;;;;;;;;;;;-144.99;41.95;52073.06;5081521;28;20396;-79
2022/10/15 10:43:10;;;;;;;;;;;;;;;-144.99;42.38;52174.97;5075267;28;19935;-82
2022/10/15 10:45:38;;;;;;;;;;;;;;;-144.99;44.28;52177.00;5079739;28;20034;-80
2022/10/15 10:48:17;;;;;;;;;;;;;;;-144.99;45.79;52199.44;5104832;28;19929;-79
2022/10/15 10:50:44;;;;;;;;;;;;;;;-144.99;46.06;52232.03;5100010;28;19924;-77
2022/10/15 10:53:14;;;;;;;;;;;;;;;-144.99;46.46;52252.44;5077597;28;20752;-82
2022/10/15 10:55:41;;;;;;;;;;;;;;;-144.99;47.95;52317.66;5088916;28;20374;-80
2022/10/15 10:58:12;;;;;;;;;;;;;;;-144.99;50.52;52358.41;5097712;28;19925;-80
2022/10/15 11:00:41;;;;;;;;;;;;;;;-144.99;51.81;52342.09;5103595;28;19935;-80
2022/10/15 11:03:18;;;;;;;;;;;;;;;-144.99;53.11;52344.16;5101207;28;19953;-81
2022/10/15 11:05:44;;;;;;;;;;;;;;;-144.99;53.97;52303.38;5085967;28;19924;-81
2022/10/15 11:08:18;;;;;;;;;;;;;;;-144.99;53.89;52338.03;5096038;28;19928;-79
2022/10/15 11:10:49;;;;;;;;;;;;;;;-144.99;53.61;52280.97;5110891;28;19954;-82
2022/10/15 11:13:28;;;;;;;;;;;;;;;-144.99;51.72;52317.66;5088222;28;19924;-83
2022/10/15 11:15:59;;;;;;;;;;;;;;;-144.99;51.70;52321.72;5093172;28;19924;-80
2022/10/15 11:18:29;;;;;;;;;;;;;;;-144.99;52.33;52362.50;5105174;28;20424;-80
2022/10/15 11:20:59;;;;;;;;;;;;;;;-144.99;54.46;52356.38;5118072;22;19924;-76
2022/10/15 11:23:34;;;;;;;;;;;;;;;-144.99;56.47;52374.72;5083349;28;19952;-77
2022/10/15 11:26:05;;;;;;;;;;;;;;;-144.99;57.94;52374.72;5096996;28;19939;-77
2022/10/15 11:28:44;;;;;;;;;;;;;;;-144.99;59.82;52407.31;5099452;28;19924;-78
2022/10/15 11:31:15;;;;;;;;;;;;;;;-144.99;61.78;52423.63;5099176;28;19925;-78
2022/10/15 11:33:49;;;;;;;;;;;;;;;-144.99;62.23;52415.47;5084207;28;19933;-76
2022/10/15 11:36:23;;;;;;;;;;;;;;;-144.99;63.37;52419.56;5093188;28;19959;-78
2022/10/15 11:38:56;;;;;;;;;;;;;;;-144.99;64.13;52407.31;5092736;28;19933;-77
2022/10/15 11:41:27;;;;;;;;;;;;;;;-144.99;64.84;52386.94;5094382;28;19976;-79
2022/10/15 11:44:03;;;;;;;;;;;;;;;-144.99;65.10;52399.19;5089659;28;19999;-77
2022/10/15 11:46:36;;;;;;;;;;;;;;;-144.99;64.15;52391.03;5089766;28;19920;-77
2022/10/15 11:49:11;;;;;;;;;;;;;;;-144.99;62.19;52364.53;5092286;28;19928;-75
2022/10/15 11:51:41;;;;;;;;;;;;;;;-144.99;61.97;52276.88;5076345;28;19929;-76
2022/10/15 11:54:21;;;;;;;;;;;;;;;-144.99;58.90;52166.81;5066714;28;19939;-77
2022/10/15 11:56:50;;;;;;;;;;;;;;;-144.99;53.96;52170.91;5062460;28;19929;-76
2022/10/15 11:59:23;;;;;;;;;;;;;;;-144.99;50.13;52117.91;5066733;28;19928;-75
2022/10/15 12:01:53;;;;;;;;;;;;;;;-144.99;47.92;52121.97;5070309;28;19933;-76
2022/10/15 12:04:24;;;;;;;;;;;;;;;-144.99;46.06;52146.44;5070607;28;19928;-78
2022/10/15 12:06:52;;;;;;;;;;;;;;;-144.99;44.90;52126.06;5066106;28;19951;-77
2022/10/15 12:09:22;;;;;;;;;;;;;;;-144.99;43.54;52113.84;5073465;28;19936;-77
2022/10/15 12:11:51;;;;;;;;;;;;;;;-144.99;43.52;52109.75;5064654;28;19928;-77
2022/10/15 12:14:22;;;;;;;;;;;;;;;-144.99;42.68;52077.16;5073466;28;19954;-78
2022/10/15 12:16:53;;;;;;;;;;;;;;;-144.99;42.76;52091.41;5072286;28;19938;-78
2022/10/15 12:19:21;;;;;;;;;;;;;;;-144.99;42.38;52138.28;5068858;28;20295;-77
2022/10/15 12:22:05;;;;;;;;;;;;;;;-144.99;43.51;52124.03;5072331;28;20679;-77
2022/10/15 12:24:52;;;;;;;;;;;;;;;-144.99;44.65;52146.44;5071630;28;19932;-77
2022/10/15 12:27:21;;;;;;;;;;;;;;;-144.99;42.87;52113.84;5067975;28;20440;-78